createdAt,value
2018-08-16T00:00:08.420Z,72.00
2018-08-16T00:02:40.372Z,71.40
2018-08-16T00:05:14.188Z,72.50
2018-08-16T00:07:43.927Z,72.70
2018-08-16T00:10:23.000Z,73.00
2018-08-16T00:12:56.056Z,72.30
2018-08-16T00:15:26.016Z,73.30
2018-08-16T00:17:57.765Z,72.10
2018-08-16T00:20:30.459Z,72.60
2018-08-16T00:23:02.700Z,72.80
2018-08-16T00:28:05.182Z,73.30
2018-08-16T00:30:37.692Z,73.70
2018-08-16T00:33:08.428Z,74.30
2018-08-16T00:35:38.536Z,75.90
2018-08-16T00:40:43.259Z,74.40
2018-08-16T00:43:15.753Z,74.70
2018-08-16T00:45:46.027Z,75.10
2018-08-16T00:48:18.960Z,74.70
2018-08-16T00:50:49.710Z,74.70
2018-08-16T00:53:21.496Z,74.40
2018-08-16T00:55:53.506Z,75.60
2018-08-16T00:58:26.506Z,75.00
2018-08-16T01:00:56.543Z,75.20
2018-08-16T01:03:25.883Z,75.00
2018-08-16T01:05:57.777Z,74.40
2018-08-16T01:11:08.530Z,75.50
2018-08-16T01:13:39.391Z,75.20
2018-08-16T01:16:10.934Z,75.60
2018-08-16T01:23:55.894Z,75.40
2018-08-16T01:26:25.215Z,75.00
2018-08-16T01:28:54.596Z,75.80
2018-08-16T01:31:24.262Z,75.20
2018-08-16T01:33:53.424Z,75.40
2018-08-16T01:36:22.752Z,74.30
2018-08-16T01:38:52.213Z,74.90
2018-08-16T01:41:20.635Z,74.80
2018-08-16T01:43:50.826Z,74.60
2018-08-16T01:46:20.367Z,74.40
2018-08-16T01:48:48.897Z,74.20
2018-08-16T01:51:17.960Z,75.30
2018-08-16T01:53:46.790Z,75.00
2018-08-16T01:56:15.518Z,74.80
2018-08-16T01:58:44.078Z,75.40
2018-08-16T02:01:12.861Z,74.60
2018-08-16T02:03:41.492Z,75.70
2018-08-16T02:06:10.201Z,75.90
2018-08-16T02:08:38.411Z,76.50
2018-08-16T02:11:07.903Z,75.10
2018-08-16T02:13:36.485Z,76.80
2018-08-16T02:16:05.413Z,76.20
2018-08-16T02:18:34.729Z,76.00
2018-08-16T02:21:03.330Z,76.50
2018-08-16T02:23:32.469Z,75.70
2018-08-16T02:26:01.089Z,75.40
2018-08-16T02:28:30.242Z,75.60
2018-08-16T02:30:58.870Z,75.90
2018-08-16T02:33:27.566Z,76.10
2018-08-16T02:35:56.184Z,76.50
2018-08-16T02:38:24.430Z,76.20
2018-08-16T02:40:53.017Z,75.60
2018-08-16T02:43:21.738Z,76.90
2018-08-16T02:45:50.364Z,75.40
2018-08-16T02:48:18.990Z,75.60
2018-08-16T02:50:47.473Z,75.80
2018-08-16T02:53:16.163Z,75.90
2018-08-16T02:55:45.595Z,75.80
2018-08-16T02:58:14.229Z,75.80
2018-08-16T03:00:42.756Z,75.70
2018-08-16T03:03:11.256Z,77.30
2018-08-16T03:05:39.794Z,76.20
2018-08-16T03:08:08.658Z,76.40
2018-08-16T03:10:37.124Z,75.80
2018-08-16T03:13:05.612Z,76.80
2018-08-16T03:15:34.367Z,76.70
2018-08-16T03:18:02.935Z,75.80
2018-08-16T03:20:32.275Z,76.20
2018-08-16T03:23:00.845Z,76.90
2018-08-16T03:25:29.320Z,76.90
2018-08-16T03:27:57.788Z,77.30
2018-08-16T03:30:26.280Z,77.90
2018-08-16T03:32:55.883Z,78.10
2018-08-16T03:35:25.431Z,77.70
2018-08-16T03:37:54.125Z,76.90
2018-08-16T03:40:22.645Z,77.30
2018-08-16T03:42:51.267Z,76.00
2018-08-16T03:45:19.876Z,76.20
2018-08-16T03:47:48.621Z,76.60
2018-08-16T03:50:17.188Z,77.00
2018-08-16T03:52:46.582Z,76.90
2018-08-16T03:55:15.378Z,76.60
2018-08-16T03:57:43.932Z,76.30
2018-08-16T04:00:12.624Z,76.30
2018-08-16T04:02:41.328Z,76.00
2018-08-16T04:05:09.937Z,76.50
2018-08-16T04:07:38.549Z,75.70
2018-08-16T04:10:07.051Z,76.90
2018-08-16T04:12:35.790Z,76.80
2018-08-16T04:15:04.414Z,77.00
2018-08-16T04:17:37.311Z,77.10
2018-08-16T04:20:07.440Z,77.50
2018-08-16T04:22:36.054Z,76.10
2018-08-16T04:25:05.244Z,76.40
2018-08-16T04:27:33.894Z,78.10
2018-08-16T04:30:02.394Z,77.00
2018-08-16T04:32:30.915Z,76.30
2018-08-16T04:34:59.422Z,76.80
2018-08-16T04:37:28.120Z,77.10
2018-08-16T04:39:56.670Z,77.00
2018-08-16T04:42:25.289Z,76.60
2018-08-16T04:44:53.864Z,78.40
2018-08-16T04:47:22.042Z,77.00
2018-08-16T04:49:50.690Z,76.50
2018-08-16T04:52:19.181Z,77.70
2018-08-16T04:54:47.635Z,78.00
2018-08-16T04:57:16.735Z,77.80
2018-08-16T04:59:45.246Z,78.90
2018-08-16T05:02:13.830Z,78.40
2018-08-16T05:04:42.424Z,77.80
2018-08-16T05:07:10.882Z,78.40
2018-08-16T05:09:39.331Z,79.10
2018-08-16T05:12:07.932Z,78.40
2018-08-16T05:14:36.434Z,78.70
2018-08-16T05:17:04.983Z,78.00
2018-08-16T05:19:34.394Z,77.90
2018-08-16T05:22:02.943Z,78.50
2018-08-16T05:24:31.422Z,79.10
2018-08-16T05:26:59.966Z,79.30
2018-08-16T05:29:28.540Z,79.80
2018-08-16T05:31:57.149Z,79.30
2018-08-16T05:34:25.729Z,79.90
2018-08-16T05:36:54.348Z,79.20
2018-08-16T05:39:22.951Z,79.70
2018-08-16T05:41:51.582Z,79.60
2018-08-16T05:44:20.110Z,80.40
2018-08-16T05:46:48.796Z,79.50
2018-08-16T05:49:17.414Z,79.70
2018-08-16T05:51:46.143Z,79.30
2018-08-16T05:54:15.887Z,79.10
2018-08-16T05:56:45.425Z,80.30
2018-08-16T05:59:14.937Z,79.20
2018-08-16T06:01:44.780Z,79.20
2018-08-16T06:04:14.023Z,78.80
2018-08-16T06:06:42.662Z,78.10
2018-08-16T06:09:11.613Z,78.30
2018-08-16T06:11:40.194Z,78.50
2018-08-16T06:14:10.419Z,78.90
2018-08-16T06:16:39.162Z,78.80
2018-08-16T06:19:08.182Z,78.70
2018-08-16T06:21:38.578Z,78.60
2018-08-16T06:24:09.650Z,78.50
2018-08-16T06:26:38.252Z,78.40
2018-08-16T06:29:08.193Z,77.00
2018-08-16T06:31:36.733Z,77.20
2018-08-16T06:34:05.710Z,77.00
2018-08-16T06:36:34.918Z,76.50
2018-08-16T06:39:05.712Z,76.90
2018-08-16T06:41:36.796Z,77.10
2018-08-16T06:44:05.754Z,76.00
2018-08-16T06:46:36.464Z,75.70
2018-08-16T06:49:04.994Z,76.30
2018-08-16T06:51:33.672Z,75.20
2018-08-16T06:54:03.979Z,75.20
2018-08-16T06:56:33.123Z,74.80
2018-08-16T06:59:01.810Z,75.40
2018-08-16T07:01:30.557Z,74.20
2018-08-16T07:03:59.321Z,74.50
2018-08-16T07:06:32.029Z,74.10
2018-08-16T07:09:00.685Z,74.90
2018-08-16T07:11:30.329Z,74.30
2018-08-16T07:13:59.096Z,75.00
2018-08-16T07:16:27.735Z,73.90
2018-08-16T07:18:56.191Z,73.90
2018-08-16T07:21:24.632Z,74.50
2018-08-16T07:23:53.114Z,73.40
2018-08-16T07:26:21.618Z,73.70
2018-08-16T07:28:57.019Z,73.00
2018-08-16T07:31:25.632Z,72.50
2018-08-16T07:33:54.302Z,71.80
2018-08-16T07:36:22.993Z,72.40
2018-08-16T07:38:51.597Z,71.60
2018-08-16T07:41:21.209Z,70.80
2018-08-16T07:43:49.779Z,70.70
2018-08-16T07:46:18.531Z,70.90
2018-08-16T07:48:47.010Z,71.10
2018-08-16T07:51:15.762Z,70.50
2018-08-16T07:53:44.333Z,69.80
2018-08-16T07:56:13.646Z,69.10
2018-08-16T07:58:42.198Z,69.20
2018-08-16T08:01:14.330Z,67.50
2018-08-16T08:03:42.936Z,67.40
2018-08-16T08:06:11.533Z,67.30
2018-08-16T08:08:40.090Z,68.00
2018-08-16T08:11:10.182Z,66.80
2018-08-16T08:13:38.708Z,65.90
2018-08-16T08:16:07.259Z,62.90
2018-08-16T08:18:35.961Z,62.60
2018-08-16T08:21:04.605Z,61.30
2018-08-16T08:23:33.142Z,59.60
2018-08-16T08:26:01.639Z,59.80
2018-08-16T08:28:30.198Z,58.80
2018-08-16T08:30:58.778Z,59.10
2018-08-16T08:33:27.280Z,56.60
2018-08-16T08:37:11.286Z,56.90
2018-08-16T08:39:39.796Z,57.80
2018-08-16T08:42:08.257Z,57.10
2018-08-16T08:44:36.954Z,58.00
2018-08-16T08:47:05.588Z,58.70
2018-08-16T08:49:35.457Z,57.70
2018-08-16T08:52:05.070Z,58.20
2018-08-16T08:54:54.911Z,53.40
2018-08-16T08:57:40.644Z,50.70
2018-08-16T09:00:09.254Z,50.90
2018-08-16T09:02:37.901Z,50.40
2018-08-16T09:05:08.238Z,50.60
2018-08-16T09:07:36.949Z,51.80
2018-08-16T09:11:20.508Z,52.80
2018-08-16T09:14:07.933Z,54.00
2018-08-16T09:16:40.993Z,54.30
2018-08-16T09:19:10.731Z,55.40
2018-08-16T09:21:40.513Z,55.10
2018-08-16T09:24:10.172Z,53.20
2018-08-16T09:26:43.752Z,53.30
2018-08-16T09:30:16.065Z,53.40
2018-08-16T09:33:01.910Z,52.10
2018-08-16T09:35:30.484Z,50.90
2018-08-16T09:37:59.101Z,51.40
2018-08-16T09:40:27.375Z,51.10
2018-08-16T09:42:56.285Z,50.70
2018-08-16T09:45:50.192Z,50.20
2018-08-16T09:48:46.044Z,51.10
2018-08-16T09:51:15.843Z,49.80
2018-08-16T09:53:44.692Z,50.40
2018-08-16T09:56:13.305Z,50.80
2018-08-16T09:58:42.571Z,50.50
2018-08-16T10:01:12.547Z,49.90
2018-08-16T10:03:42.761Z,50.10
2018-08-16T10:06:12.691Z,48.90
2018-08-16T10:08:41.877Z,49.30
2018-08-16T10:11:10.587Z,49.10
2018-08-16T10:13:40.214Z,48.80
2018-08-16T10:16:09.620Z,49.30
2018-08-16T10:18:38.388Z,48.10
2018-08-16T10:21:07.194Z,48.20
2018-08-16T10:23:36.084Z,49.00
2018-08-16T10:26:04.834Z,47.50
2018-08-16T10:28:34.293Z,47.30
2018-08-16T10:31:02.955Z,47.50
2018-08-16T10:33:31.552Z,47.20
2018-08-16T10:36:01.393Z,46.80
2018-08-16T10:38:30.849Z,46.20
2018-08-16T10:41:00.170Z,46.80
2018-08-16T10:43:29.953Z,46.80
2018-08-16T10:45:59.433Z,47.00
2018-08-16T10:48:29.036Z,46.80
2018-08-16T10:50:58.296Z,47.60
2018-08-16T10:53:28.152Z,48.00
2018-08-16T10:55:59.420Z,47.30
2018-08-16T10:58:29.444Z,46.40
2018-08-16T11:00:58.479Z,46.60
2018-08-16T11:03:28.656Z,45.70
2018-08-16T11:05:58.541Z,45.50
2018-08-16T11:08:29.268Z,45.80
2018-08-16T11:10:57.882Z,44.60
2018-08-16T11:13:27.133Z,43.80
2018-08-16T11:15:55.536Z,43.70
2018-08-16T11:18:24.891Z,43.80
2018-08-16T11:20:53.391Z,44.10
2018-08-16T11:23:22.093Z,44.60
2018-08-16T11:25:50.591Z,44.50
2018-08-16T11:30:55.395Z,44.80
2018-08-16T11:33:24.207Z,45.20
2018-08-16T11:35:52.765Z,45.60
2018-08-16T11:38:21.202Z,44.90
2018-08-16T11:40:50.533Z,46.20
2018-08-16T11:43:20.252Z,46.80
2018-08-16T11:45:48.687Z,47.00
2018-08-16T11:48:17.277Z,45.90
2018-08-16T11:50:45.879Z,45.40
2018-08-16T11:53:14.611Z,45.00
2018-08-16T11:55:43.209Z,44.90
2018-08-16T11:58:13.591Z,44.70
2018-08-16T12:03:15.435Z,46.70
2018-08-16T12:05:44.016Z,43.70
2018-08-16T12:08:12.573Z,43.50
2018-08-16T12:10:41.174Z,43.20
2018-08-16T12:13:09.688Z,41.00
2018-08-16T12:15:38.754Z,42.70
2018-08-16T12:18:07.211Z,40.40
2018-08-16T12:20:35.921Z,39.20
2018-08-16T12:23:04.578Z,38.70
2018-08-16T12:25:33.442Z,40.00
2018-08-16T12:28:01.974Z,40.20
2018-08-16T12:30:31.312Z,39.40
2018-08-16T12:32:59.984Z,40.00
2018-08-16T12:35:29.088Z,41.20
2018-08-16T12:37:57.606Z,41.00
2018-08-16T12:40:26.789Z,40.20
2018-08-16T12:42:55.279Z,40.30
2018-08-16T12:45:23.809Z,39.70
2018-08-16T12:47:52.785Z,39.30
2018-08-16T12:50:21.227Z,37.20
2018-08-16T12:52:50.858Z,37.30
2018-08-16T12:55:19.061Z,36.30
2018-08-16T12:57:47.304Z,36.80
2018-08-16T13:00:17.636Z,36.40
2018-08-16T13:02:47.862Z,35.90
2018-08-16T13:05:16.424Z,36.60
2018-08-16T13:07:44.964Z,37.40
2018-08-16T13:10:14.133Z,36.50
2018-08-16T13:12:42.594Z,36.60
2018-08-16T13:15:11.258Z,35.70
2018-08-16T13:17:40.386Z,36.00
2018-08-16T13:20:11.120Z,38.20
2018-08-16T13:22:39.908Z,34.10
2018-08-16T13:25:09.664Z,33.50
2018-08-16T13:27:38.230Z,34.60
2018-08-16T13:30:07.942Z,33.00
2018-08-16T13:35:11.555Z,33.50
2018-08-16T13:37:41.225Z,33.10
2018-08-16T13:40:12.064Z,33.40
2018-08-16T13:42:43.515Z,32.70
2018-08-16T13:45:12.015Z,34.80
2018-08-16T13:47:40.901Z,33.80
2018-08-16T13:50:11.154Z,33.10
2018-08-16T13:52:39.761Z,33.60
2018-08-16T13:55:08.203Z,36.00
2018-08-16T13:57:37.324Z,33.80
2018-08-16T14:00:08.641Z,33.90
2018-08-16T14:02:37.440Z,33.20
2018-08-16T14:05:07.839Z,32.40
2018-08-16T14:07:41.191Z,31.40
2018-08-16T14:10:10.332Z,34.10
2018-08-16T14:12:39.088Z,32.10
2018-08-16T14:15:09.237Z,33.00
2018-08-16T14:17:38.123Z,31.20
2018-08-16T14:20:07.742Z,29.70
2018-08-16T14:22:36.782Z,30.50
2018-08-16T14:25:06.600Z,30.00
2018-08-16T14:27:35.315Z,29.90
2018-08-16T14:30:07.010Z,29.40
2018-08-16T14:32:36.531Z,31.20
2018-08-16T14:35:05.273Z,30.60
2018-08-16T14:37:33.953Z,31.70
2018-08-16T14:40:02.635Z,30.70
2018-08-16T14:42:31.876Z,32.50
2018-08-16T14:45:00.405Z,32.30
2018-08-16T14:47:29.042Z,31.70
2018-08-16T14:50:01.456Z,31.10
2018-08-16T14:52:29.870Z,31.10
2018-08-16T14:54:58.512Z,31.60
2018-08-16T14:57:27.728Z,30.70
2018-08-16T14:59:56.446Z,30.30
2018-08-16T15:02:27.314Z,30.30
2018-08-16T15:04:56.554Z,30.30
2018-08-16T15:07:26.295Z,31.10
2018-08-16T15:09:55.330Z,29.90
2018-08-16T15:12:24.153Z,30.00
2018-08-16T15:14:53.171Z,30.20
2018-08-16T15:17:22.347Z,30.00
2018-08-16T15:19:50.925Z,30.40
2018-08-16T15:22:19.838Z,29.70
2018-08-16T15:24:48.808Z,31.50
2018-08-16T15:27:19.300Z,29.30
2018-08-16T15:29:47.943Z,29.40
2018-08-16T15:32:16.593Z,28.80
2018-08-16T15:34:45.173Z,29.70
2018-08-16T15:37:14.467Z,30.80
2018-08-16T15:39:44.217Z,29.90
2018-08-16T15:42:13.645Z,29.90
2018-08-16T15:44:42.809Z,30.40
2018-08-16T15:47:12.603Z,29.90
2018-08-16T15:49:41.757Z,29.30
2018-08-16T15:52:13.899Z,29.90
2018-08-16T15:54:42.729Z,29.20
2018-08-16T15:57:11.456Z,29.10
2018-08-16T15:59:40.718Z,28.70
2018-08-16T16:02:09.603Z,29.20
2018-08-16T16:04:38.428Z,28.60
2018-08-16T16:07:07.128Z,28.60
2018-08-16T16:09:37.389Z,29.30
2018-08-16T16:12:06.691Z,29.60
2018-08-16T16:14:35.315Z,29.30
2018-08-16T16:17:04.251Z,30.00
2018-08-16T16:19:33.037Z,29.30
2018-08-16T16:22:02.588Z,30.50
2018-08-16T16:24:31.743Z,32.00
2018-08-16T16:27:00.624Z,32.20
2018-08-16T16:29:29.109Z,34.30
2018-08-16T16:31:57.717Z,34.80
2018-08-16T16:34:27.350Z,35.50
2018-08-16T16:36:56.715Z,37.20
2018-08-16T16:41:59.048Z,37.70
2018-08-16T16:44:28.373Z,38.30
2018-08-16T16:46:56.960Z,40.40
2018-08-16T16:49:25.783Z,39.70
2018-08-16T16:51:54.464Z,40.50
2018-08-16T16:54:23.769Z,40.80
2018-08-16T16:56:53.303Z,42.30
2018-08-16T16:59:21.969Z,42.60
2018-08-16T17:01:50.581Z,43.30
2018-08-16T17:04:18.981Z,44.00
2018-08-16T17:06:47.516Z,45.10
2018-08-16T17:09:16.202Z,45.70
2018-08-16T17:11:44.809Z,45.70
2018-08-16T17:14:13.476Z,45.60
2018-08-16T17:16:45.772Z,46.50
2018-08-16T17:19:14.236Z,48.00
2018-08-16T17:21:42.837Z,47.70
2018-08-16T17:24:11.383Z,48.10
2018-08-16T17:26:39.937Z,48.00
2018-08-16T17:29:08.790Z,48.50
2018-08-16T17:31:39.413Z,49.10
2018-08-16T17:34:08.040Z,49.10
2018-08-16T17:36:36.529Z,49.30
2018-08-16T17:39:06.414Z,49.80
2018-08-16T17:41:35.984Z,50.40
2018-08-16T17:44:04.564Z,50.10
2018-08-16T17:46:33.020Z,50.40
2018-08-16T17:49:03.522Z,50.90
2018-08-16T17:51:32.248Z,50.90
2018-08-16T17:54:00.826Z,51.50
2018-08-16T17:56:29.559Z,53.10
2018-08-16T17:58:58.489Z,54.50
2018-08-16T18:01:27.297Z,55.40
2018-08-16T18:03:56.023Z,55.70
2018-08-16T18:06:24.807Z,56.10
2018-08-16T18:08:53.730Z,56.90
2018-08-16T18:11:22.445Z,57.60
2018-08-16T18:13:51.282Z,58.40
2018-08-16T18:16:21.430Z,59.40
2018-08-16T18:18:50.196Z,59.20
2018-08-16T18:21:18.922Z,60.00
2018-08-16T18:23:48.905Z,61.20
2018-08-16T18:26:18.597Z,61.00
2018-08-16T18:28:47.424Z,59.60
2018-08-16T18:31:16.387Z,59.90
2018-08-16T18:33:45.209Z,60.00
2018-08-16T18:36:13.987Z,60.60
2018-08-16T18:38:44.066Z,60.20
2018-08-16T18:41:13.936Z,60.60
2018-08-16T18:43:42.446Z,61.10
2018-08-16T18:46:11.316Z,60.70
2018-08-16T18:48:40.915Z,61.20
2018-08-16T18:51:09.502Z,61.10
2018-08-16T18:53:37.960Z,60.90
2018-08-16T18:56:07.755Z,61.20
2018-08-16T18:58:36.375Z,60.30
2018-08-16T19:01:05.587Z,61.20
2018-08-16T19:03:34.373Z,61.20
2018-08-16T19:06:03.026Z,60.70
2018-08-16T19:08:31.671Z,60.50
2018-08-16T19:11:00.368Z,60.10
2018-08-16T19:13:28.853Z,60.60
2018-08-16T19:15:58.353Z,60.60
2018-08-16T19:18:28.622Z,60.10
2018-08-16T19:20:58.304Z,60.60
2018-08-16T19:23:27.854Z,60.60
2018-08-16T19:25:57.836Z,60.30
2018-08-16T19:28:27.188Z,60.10
2018-08-16T19:30:56.043Z,59.90
2018-08-16T19:33:25.897Z,59.70
2018-08-16T19:35:54.736Z,59.30
2018-08-16T19:38:24.060Z,58.50
2018-08-16T19:40:53.008Z,59.00
2018-08-16T19:43:21.282Z,59.60
2018-08-16T19:45:51.737Z,59.10
2018-08-16T19:48:20.401Z,60.50
2018-08-16T19:50:49.096Z,61.70
2018-08-16T19:53:19.338Z,61.10
2018-08-16T19:55:48.516Z,61.90
2018-08-16T19:58:17.151Z,61.20
2018-08-16T20:00:46.315Z,63.50
2018-08-16T20:03:15.796Z,63.00
2018-08-16T20:05:46.709Z,63.60
2018-08-16T20:08:15.319Z,64.00
2018-08-16T20:10:44.479Z,63.60
2018-08-16T20:13:13.208Z,63.30
2018-08-16T20:15:41.928Z,63.70
2018-08-16T20:18:11.822Z,63.70
2018-08-16T20:20:40.592Z,64.70
2018-08-16T20:23:10.172Z,65.20
2018-08-16T20:25:39.580Z,66.00
2018-08-16T20:28:08.369Z,66.80
2018-08-16T20:30:37.036Z,65.40
2018-08-16T20:33:06.293Z,65.80
2018-08-16T20:35:37.199Z,66.90
2018-08-16T20:38:05.907Z,67.00
2018-08-16T20:40:36.791Z,66.70
2018-08-16T20:43:05.533Z,66.60
2018-08-16T20:45:34.260Z,66.30
2018-08-16T20:48:03.298Z,67.00
2018-08-16T20:50:32.104Z,67.50
2018-08-16T20:53:00.732Z,67.00
2018-08-16T20:55:31.084Z,67.40
2018-08-16T20:58:00.141Z,67.40
2018-08-16T21:00:28.890Z,66.40
2018-08-16T21:02:58.157Z,66.90
2018-08-16T21:05:27.110Z,67.10
2018-08-16T21:07:55.775Z,67.70
2018-08-16T21:10:24.449Z,68.60
2018-08-16T21:12:53.105Z,68.50
2018-08-16T21:15:21.716Z,67.40
2018-08-16T21:17:50.824Z,68.40
2018-08-16T21:20:19.675Z,69.30
2018-08-16T21:22:48.754Z,68.00
2018-08-16T21:25:17.998Z,67.90
2018-08-16T21:27:46.689Z,67.20
2018-08-16T21:30:15.563Z,68.10
2018-08-16T21:32:44.847Z,67.80
2018-08-16T21:35:13.426Z,67.60
2018-08-16T21:37:42.166Z,67.90
2018-08-16T21:40:10.750Z,67.70
2018-08-16T21:42:39.379Z,68.00
2018-08-16T21:45:09.007Z,68.40
2018-08-16T21:47:38.896Z,68.20
2018-08-16T21:50:08.371Z,68.40
2018-08-16T21:52:37.120Z,68.00
2018-08-16T21:55:05.449Z,68.40
2018-08-16T21:57:34.656Z,68.00
2018-08-16T22:00:04.276Z,70.20
2018-08-16T22:02:33.140Z,68.20
2018-08-16T22:05:01.945Z,68.40
2018-08-16T22:08:12.581Z,68.60
2018-08-16T22:10:42.896Z,68.10
2018-08-16T22:13:12.352Z,68.30
2018-08-16T22:15:41.008Z,68.40
2018-08-16T22:18:10.764Z,68.20
2018-08-16T22:20:39.531Z,68.80
2018-08-16T22:23:08.212Z,68.60
2018-08-16T22:25:40.882Z,70.50
2018-08-16T22:28:09.532Z,72.00
2018-08-16T22:30:38.992Z,73.50
2018-08-16T22:33:08.361Z,75.00
2018-08-16T22:35:37.099Z,75.70
2018-08-16T22:38:07.869Z,75.90
2018-08-16T22:40:37.515Z,77.20
2018-08-16T22:43:07.047Z,78.40
2018-08-16T22:45:39.924Z,80.50
2018-08-16T22:48:10.450Z,80.60
2018-08-16T22:53:21.973Z,81.70
2018-08-16T22:55:55.658Z,81.70
2018-08-16T22:58:27.326Z,81.60
2018-08-16T23:00:57.214Z,81.90
2018-08-16T23:03:28.320Z,82.30
2018-08-16T23:06:04.692Z,81.10
2018-08-16T23:08:36.038Z,81.00
2018-08-16T23:11:13.590Z,81.10
2018-08-16T23:13:46.943Z,80.80
2018-08-16T23:16:17.311Z,80.60
2018-08-16T23:18:48.916Z,80.80
2018-08-16T23:21:22.907Z,81.50
2018-08-16T23:23:53.792Z,81.30
2018-08-16T23:26:24.073Z,82.10
2018-08-16T23:28:57.471Z,80.50
2018-08-16T23:31:27.310Z,79.80
2018-08-16T23:33:58.064Z,80.10
2018-08-16T23:36:28.122Z,79.80
2018-08-16T23:38:57.742Z,80.60
2018-08-16T23:41:27.805Z,80.40
2018-08-16T23:43:57.777Z,80.30
2018-08-16T23:46:29.284Z,80.60
2018-08-16T23:49:00.242Z,80.90
2018-08-16T23:51:34.024Z,80.00
2018-08-16T23:54:05.149Z,81.20
2018-08-16T23:56:35.079Z,81.40
2018-08-16T23:59:03.830Z,80.80
